sensor_id;sensor_type;location;lat;lon;timestamp;P1;durP1;ratioP1;P2;durP2;ratioP2
71767;SDS011;59604;52.138;5.446;2022-11-11T00:00:50;16.48;;;6.35;;
71767;SDS011;59604;52.138;5.446;2022-11-11T00:03:16;17.73;;;7.28;;
71767;SDS011;59604;52.138;5.446;2022-11-11T00:05:50;15.57;;;6.80;;
71767;SDS011;59604;52.138;5.446;2022-11-11T00:08:16;18.50;;;7.32;;
71767;SDS011;59604;52.138;5.446;2022-11-11T00:10:42;17.83;;;7.40;;
71767;SDS011;59604;52.138;5.446;2022-11-11T00:13:09;15.35;;;7.47;;
71767;SDS011;59604;52.138;5.446;2022-11-11T00:15:36;18.35;;;7.32;;
71767;SDS011;59604;52.138;5.446;2022-11-11T00:18:08;16.20;;;7.55;;
71767;SDS011;59604;52.138;5.446;2022-11-11T00:20:58;18.15;;;7.90;;
71767;SDS011;59604;52.138;5.446;2022-11-11T00:23:43;18.35;;;7.72;;
71767;SDS011;59604;52.138;5.446;2022-11-11T00:26:28;15.32;;;7.20;;
71767;SDS011;59604;52.138;5.446;2022-11-11T00:29:10;18.73;;;8.52;;
71767;SDS011;59604;52.138;5.446;2022-11-11T00:31:37;18.13;;;8.18;;
71767;SDS011;59604;52.138;5.446;2022-11-11T00:34:23;19.33;;;8.82;;
71767;SDS011;59604;52.138;5.446;2022-11-11T00:37:00;21.35;;;8.73;;
71767;SDS011;59604;52.138;5.446;2022-11-11T00:39:37;23.35;;;9.02;;
71767;SDS011;59604;52.138;5.446;2022-11-11T00:42:14;21.15;;;10.05;;
71767;SDS011;59604;52.138;5.446;2022-11-11T00:44:40;22.60;;;9.25;;
71767;SDS011;59604;52.138;5.446;2022-11-11T00:47:07;19.00;;;8.90;;
71767;SDS011;59604;52.138;5.446;2022-11-11T00:49:52;20.40;;;9.38;;
71767;SDS011;59604;52.138;5.446;2022-11-11T00:52:37;19.70;;;9.25;;
71767;SDS011;59604;52.138;5.446;2022-11-11T00:55:04;20.92;;;9.05;;
71767;SDS011;59604;52.138;5.446;2022-11-11T00:57:31;20.90;;;9.50;;
71767;SDS011;59604;52.138;5.446;2022-11-11T00:59:57;20.27;;;9.65;;
71767;SDS011;59604;52.138;5.446;2022-11-11T01:02:24;20.00;;;9.13;;
71767;SDS011;59604;52.138;5.446;2022-11-11T01:04:51;22.00;;;9.65;;
71767;SDS011;59604;52.138;5.446;2022-11-11T01:07:17;22.02;;;9.98;;
71767;SDS011;59604;52.138;5.446;2022-11-11T01:09:44;28.02;;;10.23;;
71767;SDS011;59604;52.138;5.446;2022-11-11T01:12:10;23.85;;;10.40;;
71767;SDS011;59604;52.138;5.446;2022-11-11T01:14:37;24.58;;;10.15;;
71767;SDS011;59604;52.138;5.446;2022-11-11T01:17:04;26.55;;;10.07;;
71767;SDS011;59604;52.138;5.446;2022-11-11T01:19:31;24.45;;;10.57;;
71767;SDS011;59604;52.138;5.446;2022-11-11T01:21:58;23.05;;;10.10;;
71767;SDS011;59604;52.138;5.446;2022-11-11T01:24:24;23.25;;;11.30;;
71767;SDS011;59604;52.138;5.446;2022-11-11T01:26:51;25.38;;;10.85;;
71767;SDS011;59604;52.138;5.446;2022-11-11T01:29:18;24.80;;;10.90;;
71767;SDS011;59604;52.138;5.446;2022-11-11T01:31:44;25.27;;;11.55;;
71767;SDS011;59604;52.138;5.446;2022-11-11T01:34:11;32.65;;;12.82;;
71767;SDS011;59604;52.138;5.446;2022-11-11T01:36:38;30.75;;;11.90;;
71767;SDS011;59604;52.138;5.446;2022-11-11T01:39:04;27.73;;;12.50;;
71767;SDS011;59604;52.138;5.446;2022-11-11T01:41:32;29.10;;;12.20;;
71767;SDS011;59604;52.138;5.446;2022-11-11T01:46:44;26.98;;;11.95;;
71767;SDS011;59604;52.138;5.446;2022-11-11T01:49:41;27.13;;;11.95;;
71767;SDS011;59604;52.138;5.446;2022-11-11T01:55:14;28.50;;;12.65;;
71767;SDS011;59604;52.138;5.446;2022-11-11T02:00:16;25.15;;;12.20;;
71767;SDS011;59604;52.138;5.446;2022-11-11T02:02:45;30.38;;;12.45;;
71767;SDS011;59604;52.138;5.446;2022-11-11T02:05:16;28.27;;;12.20;;
71767;SDS011;59604;52.138;5.446;2022-11-11T02:08:04;28.30;;;12.38;;
71767;SDS011;59604;52.138;5.446;2022-11-11T02:10:35;30.73;;;13.48;;
71767;SDS011;59604;52.138;5.446;2022-11-11T02:13:07;30.23;;;12.57;;
71767;SDS011;59604;52.138;5.446;2022-11-11T02:15:55;33.47;;;12.82;;
71767;SDS011;59604;52.138;5.446;2022-11-11T02:18:22;31.50;;;13.75;;
71767;SDS011;59604;52.138;5.446;2022-11-11T02:20:49;31.52;;;13.50;;
71767;SDS011;59604;52.138;5.446;2022-11-11T02:26:08;29.58;;;13.15;;
71767;SDS011;59604;52.138;5.446;2022-11-11T02:28:40;28.33;;;12.88;;
71767;SDS011;59604;52.138;5.446;2022-11-11T02:31:07;30.35;;;12.52;;
71767;SDS011;59604;52.138;5.446;2022-11-11T02:33:35;32.40;;;13.90;;
71767;SDS011;59604;52.138;5.446;2022-11-11T02:36:01;32.00;;;12.57;;
71767;SDS011;59604;52.138;5.446;2022-11-11T02:38:28;28.52;;;12.43;;
71767;SDS011;59604;52.138;5.446;2022-11-11T02:40:55;30.95;;;12.80;;
71767;SDS011;59604;52.138;5.446;2022-11-11T02:43:40;28.58;;;12.82;;
71767;SDS011;59604;52.138;5.446;2022-11-11T02:46:07;27.25;;;12.38;;
71767;SDS011;59604;52.138;5.446;2022-11-11T02:48:34;29.80;;;12.88;;
71767;SDS011;59604;52.138;5.446;2022-11-11T02:51:00;30.75;;;12.50;;
71767;SDS011;59604;52.138;5.446;2022-11-11T02:53:27;31.63;;;12.93;;
71767;SDS011;59604;52.138;5.446;2022-11-11T02:55:55;29.45;;;12.80;;
71767;SDS011;59604;52.138;5.446;2022-11-11T02:58:21;31.48;;;13.55;;
71767;SDS011;59604;52.138;5.446;2022-11-11T03:00:48;31.73;;;12.45;;
71767;SDS011;59604;52.138;5.446;2022-11-11T03:03:15;28.35;;;12.75;;
71767;SDS011;59604;52.138;5.446;2022-11-11T03:05:41;29.65;;;12.85;;
71767;SDS011;59604;52.138;5.446;2022-11-11T03:08:08;31.02;;;12.98;;
71767;SDS011;59604;52.138;5.446;2022-11-11T03:10:35;29.45;;;12.57;;
71767;SDS011;59604;52.138;5.446;2022-11-11T03:13:02;31.75;;;13.10;;
71767;SDS011;59604;52.138;5.446;2022-11-11T03:15:29;27.30;;;12.48;;
71767;SDS011;59604;52.138;5.446;2022-11-11T03:17:55;33.28;;;13.15;;
71767;SDS011;59604;52.138;5.446;2022-11-11T03:20:22;28.77;;;12.70;;
71767;SDS011;59604;52.138;5.446;2022-11-11T03:23:08;28.27;;;12.18;;
71767;SDS011;59604;52.138;5.446;2022-11-11T03:25:40;29.48;;;11.77;;
71767;SDS011;59604;52.138;5.446;2022-11-11T03:28:23;26.67;;;12.10;;
71767;SDS011;59604;52.138;5.446;2022-11-11T03:30:52;27.65;;;12.65;;
71767;SDS011;59604;52.138;5.446;2022-11-11T03:33:19;29.05;;;11.88;;
71767;SDS011;59604;52.138;5.446;2022-11-11T03:35:46;29.75;;;12.80;;
71767;SDS011;59604;52.138;5.446;2022-11-11T03:38:13;29.15;;;11.98;;
71767;SDS011;59604;52.138;5.446;2022-11-11T03:40:50;28.73;;;12.07;;
71767;SDS011;59604;52.138;5.446;2022-11-11T03:43:19;28.02;;;11.73;;
71767;SDS011;59604;52.138;5.446;2022-11-11T03:45:47;32.03;;;11.82;;
71767;SDS011;59604;52.138;5.446;2022-11-11T03:48:14;31.02;;;11.98;;
71767;SDS011;59604;52.138;5.446;2022-11-11T03:50:41;28.80;;;10.82;;
71767;SDS011;59604;52.138;5.446;2022-11-11T03:53:08;27.38;;;11.60;;
71767;SDS011;59604;52.138;5.446;2022-11-11T03:55:34;29.25;;;11.75;;
71767;SDS011;59604;52.138;5.446;2022-11-11T03:58:01;29.35;;;12.30;;
71767;SDS011;59604;52.138;5.446;2022-11-11T04:00:28;28.88;;;11.35;;
71767;SDS011;59604;52.138;5.446;2022-11-11T04:03:02;29.60;;;12.52;;
71767;SDS011;59604;52.138;5.446;2022-11-11T04:05:56;27.67;;;11.38;;
71767;SDS011;59604;52.138;5.446;2022-11-11T04:08:41;27.95;;;11.10;;
71767;SDS011;59604;52.138;5.446;2022-11-11T04:11:43;29.23;;;11.02;;
71767;SDS011;59604;52.138;5.446;2022-11-11T04:14:13;27.65;;;11.30;;
71767;SDS011;59604;52.138;5.446;2022-11-11T04:16:58;28.35;;;10.80;;
71767;SDS011;59604;52.138;5.446;2022-11-11T04:19:25;26.77;;;11.25;;
71767;SDS011;59604;52.138;5.446;2022-11-11T04:22:10;28.25;;;10.80;;
71767;SDS011;59604;52.138;5.446;2022-11-11T04:24:36;26.48;;;10.68;;
71767;SDS011;59604;52.138;5.446;2022-11-11T04:27:22;25.13;;;10.65;;
71767;SDS011;59604;52.138;5.446;2022-11-11T04:29:48;26.08;;;10.32;;
71767;SDS011;59604;52.138;5.446;2022-11-11T04:32:18;24.30;;;10.10;;
71767;SDS011;59604;52.138;5.446;2022-11-11T04:35:02;24.90;;;10.38;;
71767;SDS011;59604;52.138;5.446;2022-11-11T04:37:45;27.15;;;10.40;;
71767;SDS011;59604;52.138;5.446;2022-11-11T04:40:15;25.75;;;10.45;;
71767;SDS011;59604;52.138;5.446;2022-11-11T04:43:00;24.23;;;10.18;;
71767;SDS011;59604;52.138;5.446;2022-11-11T04:45:27;23.83;;;10.45;;
71767;SDS011;59604;52.138;5.446;2022-11-11T04:48:04;25.48;;;10.48;;
71767;SDS011;59604;52.138;5.446;2022-11-11T04:50:41;21.98;;;9.70;;
71767;SDS011;59604;52.138;5.446;2022-11-11T04:53:12;23.50;;;9.88;;
71767;SDS011;59604;52.138;5.446;2022-11-11T04:55:41;23.92;;;10.50;;
71767;SDS011;59604;52.138;5.446;2022-11-11T04:58:28;25.63;;;10.18;;
71767;SDS011;59604;52.138;5.446;2022-11-11T05:00:56;26.20;;;10.13;;
71767;SDS011;59604;52.138;5.446;2022-11-11T05:03:23;23.35;;;9.63;;
71767;SDS011;59604;52.138;5.446;2022-11-11T05:05:52;22.13;;;9.30;;
71767;SDS011;59604;52.138;5.446;2022-11-11T05:08:39;24.25;;;10.40;;
71767;SDS011;59604;52.138;5.446;2022-11-11T05:11:22;25.48;;;9.82;;
71767;SDS011;59604;52.138;5.446;2022-11-11T05:14:00;21.92;;;9.93;;
71767;SDS011;59604;52.138;5.446;2022-11-11T05:16:56;20.48;;;9.63;;
71767;SDS011;59604;52.138;5.446;2022-11-11T05:19:42;26.75;;;10.93;;
71767;SDS011;59604;52.138;5.446;2022-11-11T05:22:40;24.50;;;9.88;;
71767;SDS011;59604;52.138;5.446;2022-11-11T05:25:08;24.73;;;10.60;;
71767;SDS011;59604;52.138;5.446;2022-11-11T05:27:51;23.98;;;10.20;;
71767;SDS011;59604;52.138;5.446;2022-11-11T05:30:19;23.60;;;9.80;;
71767;SDS011;59604;52.138;5.446;2022-11-11T05:32:46;21.55;;;10.10;;
71767;SDS011;59604;52.138;5.446;2022-11-11T05:35:14;23.48;;;10.05;;
71767;SDS011;59604;52.138;5.446;2022-11-11T05:37:41;23.58;;;10.10;;
71767;SDS011;59604;52.138;5.446;2022-11-11T05:40:09;24.60;;;10.43;;
71767;SDS011;59604;52.138;5.446;2022-11-11T05:42:39;26.42;;;9.65;;
71767;SDS011;59604;52.138;5.446;2022-11-11T05:45:15;21.90;;;9.55;;
71767;SDS011;59604;52.138;5.446;2022-11-11T05:47:42;22.70;;;9.35;;
71767;SDS011;59604;52.138;5.446;2022-11-11T05:50:09;23.48;;;9.52;;
71767;SDS011;59604;52.138;5.446;2022-11-11T05:52:35;23.85;;;9.90;;
71767;SDS011;59604;52.138;5.446;2022-11-11T05:55:02;23.13;;;9.35;;
71767;SDS011;59604;52.138;5.446;2022-11-11T05:57:28;24.85;;;9.70;;
71767;SDS011;59604;52.138;5.446;2022-11-11T05:59:55;22.83;;;9.40;;
71767;SDS011;59604;52.138;5.446;2022-11-11T06:02:24;22.33;;;9.00;;
71767;SDS011;59604;52.138;5.446;2022-11-11T06:04:50;22.00;;;9.27;;
71767;SDS011;59604;52.138;5.446;2022-11-11T06:07:17;23.48;;;9.45;;
71767;SDS011;59604;52.138;5.446;2022-11-11T06:09:43;24.98;;;9.73;;
71767;SDS011;59604;52.138;5.446;2022-11-11T06:12:10;20.60;;;9.35;;
71767;SDS011;59604;52.138;5.446;2022-11-11T06:14:36;23.20;;;9.30;;
71767;SDS011;59604;52.138;5.446;2022-11-11T06:17:03;21.05;;;9.60;;
71767;SDS011;59604;52.138;5.446;2022-11-11T06:19:29;23.80;;;9.65;;
71767;SDS011;59604;52.138;5.446;2022-11-11T06:21:56;21.77;;;9.35;;
71767;SDS011;59604;52.138;5.446;2022-11-11T06:24:22;22.05;;;9.45;;
71767;SDS011;59604;52.138;5.446;2022-11-11T06:26:52;24.58;;;10.27;;
71767;SDS011;59604;52.138;5.446;2022-11-11T06:29:19;20.88;;;9.00;;
71767;SDS011;59604;52.138;5.446;2022-11-11T06:31:45;28.33;;;10.57;;
71767;SDS011;59604;52.138;5.446;2022-11-11T06:34:12;22.65;;;9.80;;
71767;SDS011;59604;52.138;5.446;2022-11-11T06:36:39;23.73;;;10.35;;
71767;SDS011;59604;52.138;5.446;2022-11-11T06:39:05;25.00;;;9.68;;
71767;SDS011;59604;52.138;5.446;2022-11-11T06:41:32;25.95;;;9.52;;
71767;SDS011;59604;52.138;5.446;2022-11-11T06:43:58;28.25;;;9.80;;
71767;SDS011;59604;52.138;5.446;2022-11-11T06:46:25;21.17;;;8.65;;
71767;SDS011;59604;52.138;5.446;2022-11-11T06:48:52;25.77;;;10.00;;
71767;SDS011;59604;52.138;5.446;2022-11-11T06:51:18;22.77;;;9.48;;
71767;SDS011;59604;52.138;5.446;2022-11-11T06:53:45;23.63;;;9.55;;
71767;SDS011;59604;52.138;5.446;2022-11-11T06:56:11;21.73;;;9.00;;
71767;SDS011;59604;52.138;5.446;2022-11-11T06:58:38;23.98;;;9.40;;
71767;SDS011;59604;52.138;5.446;2022-11-11T07:01:05;23.00;;;9.50;;
71767;SDS011;59604;52.138;5.446;2022-11-11T07:03:33;22.70;;;9.23;;
71767;SDS011;59604;52.138;5.446;2022-11-11T07:06:01;26.00;;;10.57;;
71767;SDS011;59604;52.138;5.446;2022-11-11T07:08:31;25.75;;;9.82;;
71767;SDS011;59604;52.138;5.446;2022-11-11T07:10:58;26.25;;;10.48;;
71767;SDS011;59604;52.138;5.446;2022-11-11T07:13:34;24.20;;;10.10;;
71767;SDS011;59604;52.138;5.446;2022-11-11T07:16:00;21.92;;;9.93;;
71767;SDS011;59604;52.138;5.446;2022-11-11T07:18:27;24.23;;;10.07;;
71767;SDS011;59604;52.138;5.446;2022-11-11T07:20:53;25.67;;;9.75;;
71767;SDS011;59604;52.138;5.446;2022-11-11T07:23:20;21.45;;;9.60;;
71767;SDS011;59604;52.138;5.446;2022-11-11T07:25:46;24.80;;;9.82;;
71767;SDS011;59604;52.138;5.446;2022-11-11T07:28:13;22.70;;;9.35;;
71767;SDS011;59604;52.138;5.446;2022-11-11T07:30:39;22.23;;;9.00;;
71767;SDS011;59604;52.138;5.446;2022-11-11T07:33:07;22.17;;;9.30;;
71767;SDS011;59604;52.138;5.446;2022-11-11T07:35:33;22.83;;;9.73;;
71767;SDS011;59604;52.138;5.446;2022-11-11T07:38:00;21.98;;;8.98;;
71767;SDS011;59604;52.138;5.446;2022-11-11T07:40:27;21.35;;;9.05;;
71767;SDS011;59604;52.138;5.446;2022-11-11T07:42:53;23.00;;;8.85;;
71767;SDS011;59604;52.138;5.446;2022-11-11T07:45:20;19.60;;;8.85;;
71767;SDS011;59604;52.138;5.446;2022-11-11T07:47:46;22.38;;;8.88;;
71767;SDS011;59604;52.138;5.446;2022-11-11T07:50:13;23.55;;;8.68;;
71767;SDS011;59604;52.138;5.446;2022-11-11T07:52:39;21.52;;;8.95;;
71767;SDS011;59604;52.138;5.446;2022-11-11T07:55:06;21.88;;;9.15;;
71767;SDS011;59604;52.138;5.446;2022-11-11T07:57:34;21.55;;;9.57;;
71767;SDS011;59604;52.138;5.446;2022-11-11T08:00:02;21.50;;;9.20;;
71767;SDS011;59604;52.138;5.446;2022-11-11T08:02:29;24.35;;;8.70;;
71767;SDS011;59604;52.138;5.446;2022-11-11T08:04:56;20.55;;;8.70;;
71767;SDS011;59604;52.138;5.446;2022-11-11T08:07:22;20.13;;;8.27;;
71767;SDS011;59604;52.138;5.446;2022-11-11T08:09:50;21.38;;;8.75;;
71767;SDS011;59604;52.138;5.446;2022-11-11T08:12:16;22.85;;;9.75;;
71767;SDS011;59604;52.138;5.446;2022-11-11T08:15:02;23.05;;;8.93;;
71767;SDS011;59604;52.138;5.446;2022-11-11T08:17:36;20.33;;;8.43;;
71767;SDS011;59604;52.138;5.446;2022-11-11T08:20:05;21.48;;;8.60;;
71767;SDS011;59604;52.138;5.446;2022-11-11T08:22:35;24.42;;;8.13;;
71767;SDS011;59604;52.138;5.446;2022-11-11T08:25:02;19.60;;;8.60;;
71767;SDS011;59604;52.138;5.446;2022-11-11T08:29:57;20.83;;;8.30;;
71767;SDS011;59604;52.138;5.446;2022-11-11T08:32:23;21.08;;;8.32;;
71767;SDS011;59604;52.138;5.446;2022-11-11T08:34:50;20.80;;;8.10;;
71767;SDS011;59604;52.138;5.446;2022-11-11T08:37:16;21.88;;;8.50;;
71767;SDS011;59604;52.138;5.446;2022-11-11T08:39:43;22.42;;;8.65;;
71767;SDS011;59604;52.138;5.446;2022-11-11T08:42:09;18.98;;;8.05;;
71767;SDS011;59604;52.138;5.446;2022-11-11T08:44:36;22.00;;;8.00;;
71767;SDS011;59604;52.138;5.446;2022-11-11T08:47:02;18.30;;;7.93;;
71767;SDS011;59604;52.138;5.446;2022-11-11T08:49:29;19.45;;;8.35;;
71767;SDS011;59604;52.138;5.446;2022-11-11T08:51:55;21.23;;;8.95;;
71767;SDS011;59604;52.138;5.446;2022-11-11T08:54:22;21.95;;;8.57;;
71767;SDS011;59604;52.138;5.446;2022-11-11T08:56:48;20.27;;;8.18;;
71767;SDS011;59604;52.138;5.446;2022-11-11T08:59:15;18.30;;;7.90;;
71767;SDS011;59604;52.138;5.446;2022-11-11T09:01:41;18.50;;;8.02;;
71767;SDS011;59604;52.138;5.446;2022-11-11T09:04:08;19.58;;;7.95;;
71767;SDS011;59604;52.138;5.446;2022-11-11T09:06:54;18.58;;;8.00;;
71767;SDS011;59604;52.138;5.446;2022-11-11T09:09:21;21.42;;;8.40;;
71767;SDS011;59604;52.138;5.446;2022-11-11T09:11:48;19.23;;;7.85;;
71767;SDS011;59604;52.138;5.446;2022-11-11T09:14:14;20.05;;;7.85;;
71767;SDS011;59604;52.138;5.446;2022-11-11T09:16:41;20.38;;;7.95;;
71767;SDS011;59604;52.138;5.446;2022-11-11T09:19:07;27.52;;;8.27;;
71767;SDS011;59604;52.138;5.446;2022-11-11T09:21:34;19.27;;;8.02;;
71767;SDS011;59604;52.138;5.446;2022-11-11T09:24:00;18.63;;;7.90;;
71767;SDS011;59604;52.138;5.446;2022-11-11T09:26:27;19.58;;;7.85;;
71767;SDS011;59604;52.138;5.446;2022-11-11T09:28:53;15.95;;;7.57;;
71767;SDS011;59604;52.138;5.446;2022-11-11T09:31:20;17.80;;;7.22;;
71767;SDS011;59604;52.138;5.446;2022-11-11T09:34:08;20.13;;;7.90;;
71767;SDS011;59604;52.138;5.446;2022-11-11T09:36:34;18.15;;;7.57;;
71767;SDS011;59604;52.138;5.446;2022-11-11T09:39:01;18.95;;;7.95;;
71767;SDS011;59604;52.138;5.446;2022-11-11T09:43:55;20.73;;;7.63;;
71767;SDS011;59604;52.138;5.446;2022-11-11T09:46:29;16.85;;;7.90;;
71767;SDS011;59604;52.138;5.446;2022-11-11T09:49:25;16.70;;;7.60;;
71767;SDS011;59604;52.138;5.446;2022-11-11T09:52:07;19.10;;;8.25;;
71767;SDS011;59604;52.138;5.446;2022-11-11T09:54:41;21.15;;;8.07;;
71767;SDS011;59604;52.138;5.446;2022-11-11T09:57:19;18.85;;;7.75;;
71767;SDS011;59604;52.138;5.446;2022-11-11T10:00:26;17.98;;;7.70;;
71767;SDS011;59604;52.138;5.446;2022-11-11T10:02:54;21.58;;;8.45;;
71767;SDS011;59604;52.138;5.446;2022-11-11T10:05:29;19.35;;;8.05;;
71767;SDS011;59604;52.138;5.446;2022-11-11T10:10:46;17.30;;;7.75;;
71767;SDS011;59604;52.138;5.446;2022-11-11T10:13:35;15.90;;;7.47;;
71767;SDS011;59604;52.138;5.446;2022-11-11T10:21:25;15.52;;;7.70;;
71767;SDS011;59604;52.138;5.446;2022-11-11T10:25:06;15.90;;;7.45;;
71767;SDS011;59604;52.138;5.446;2022-11-11T10:27:17;15.55;;;7.53;;
71767;SDS011;59604;52.138;5.446;2022-11-11T10:29:45;17.35;;;7.40;;
71767;SDS011;59604;52.138;5.446;2022-11-11T10:32:27;15.73;;;6.93;;
71767;SDS011;59604;52.138;5.446;2022-11-11T10:35:18;16.73;;;7.60;;
71767;SDS011;59604;52.138;5.446;2022-11-11T10:37:46;17.60;;;8.25;;
71767;SDS011;59604;52.138;5.446;2022-11-11T10:40:24;31.98;;;14.00;;
71767;SDS011;59604;52.138;5.446;2022-11-11T10:42:57;17.52;;;7.80;;
71767;SDS011;59604;52.138;5.446;2022-11-11T10:45:28;18.45;;;7.53;;
71767;SDS011;59604;52.138;5.446;2022-11-11T10:50:46;16.35;;;7.93;;
71767;SDS011;59604;52.138;5.446;2022-11-11T10:56:04;17.50;;;8.13;;
71767;SDS011;59604;52.138;5.446;2022-11-11T10:58:42;17.85;;;7.68;;
71767;SDS011;59604;52.138;5.446;2022-11-11T11:01:30;18.85;;;8.30;;
71767;SDS011;59604;52.138;5.446;2022-11-11T11:04:02;18.83;;;8.30;;
71767;SDS011;59604;52.138;5.446;2022-11-11T11:06:32;20.10;;;8.98;;
71767;SDS011;59604;52.138;5.446;2022-11-11T11:12:31;17.23;;;8.02;;
71767;SDS011;59604;52.138;5.446;2022-11-11T11:14:52;19.58;;;8.20;;
71767;SDS011;59604;52.138;5.446;2022-11-11T11:17:23;18.42;;;8.65;;
71767;SDS011;59604;52.138;5.446;2022-11-11T11:20:15;19.17;;;8.60;;
71767;SDS011;59604;52.138;5.446;2022-11-11T11:22:52;18.98;;;9.13;;
71767;SDS011;59604;52.138;5.446;2022-11-11T11:25:22;20.20;;;9.02;;
71767;SDS011;59604;52.138;5.446;2022-11-11T11:27:50;18.98;;;9.18;;
71767;SDS011;59604;52.138;5.446;2022-11-11T11:30:19;19.60;;;9.40;;
71767;SDS011;59604;52.138;5.446;2022-11-11T11:33:00;18.85;;;8.80;;
71767;SDS011;59604;52.138;5.446;2022-11-11T11:37:57;18.45;;;8.63;;
71767;SDS011;59604;52.138;5.446;2022-11-11T11:40:24;20.20;;;9.07;;
71767;SDS011;59604;52.138;5.446;2022-11-11T11:42:51;19.20;;;8.70;;
71767;SDS011;59604;52.138;5.446;2022-11-11T11:48:11;22.02;;;8.75;;
71767;SDS011;59604;52.138;5.446;2022-11-11T11:51:01;19.13;;;8.70;;
71767;SDS011;59604;52.138;5.446;2022-11-11T11:58:54;18.00;;;8.48;;
71767;SDS011;59604;52.138;5.446;2022-11-11T12:01:47;17.10;;;7.68;;
71767;SDS011;59604;52.138;5.446;2022-11-11T12:07:38;19.27;;;7.97;;
71767;SDS011;59604;52.138;5.446;2022-11-11T12:20:58;18.23;;;8.75;;
71767;SDS011;59604;52.138;5.446;2022-11-11T12:23:57;17.80;;;8.50;;
71767;SDS011;59604;52.138;5.446;2022-11-11T12:29:36;18.38;;;8.48;;
71767;SDS011;59604;52.138;5.446;2022-11-11T12:46:15;22.80;;;9.32;;
71767;SDS011;59604;52.138;5.446;2022-11-11T12:51:55;22.90;;;8.50;;
71767;SDS011;59604;52.138;5.446;2022-11-11T12:54:38;20.45;;;9.13;;
71767;SDS011;59604;52.138;5.446;2022-11-11T13:06:01;19.98;;;8.50;;
71767;SDS011;59604;52.138;5.446;2022-11-11T13:11:35;16.27;;;7.80;;
71767;SDS011;59604;52.138;5.446;2022-11-11T13:17:26;17.60;;;8.32;;
71767;SDS011;59604;52.138;5.446;2022-11-11T13:19:56;20.80;;;8.93;;
71767;SDS011;59604;52.138;5.446;2022-11-11T13:22:27;19.58;;;8.35;;
71767;SDS011;59604;52.138;5.446;2022-11-11T13:24:55;20.95;;;8.82;;
71767;SDS011;59604;52.138;5.446;2022-11-11T13:27:28;18.77;;;8.95;;
71767;SDS011;59604;52.138;5.446;2022-11-11T13:32:35;18.75;;;8.02;;
71767;SDS011;59604;52.138;5.446;2022-11-11T13:37:43;16.05;;;7.43;;
71767;SDS011;59604;52.138;5.446;2022-11-11T13:40:18;17.92;;;8.27;;
71767;SDS011;59604;52.138;5.446;2022-11-11T13:42:54;15.95;;;7.70;;
71767;SDS011;59604;52.138;5.446;2022-11-11T13:45:42;15.90;;;7.43;;
71767;SDS011;59604;52.138;5.446;2022-11-11T13:48:23;17.65;;;7.70;;
71767;SDS011;59604;52.138;5.446;2022-11-11T13:51:10;17.23;;;7.55;;
71767;SDS011;59604;52.138;5.446;2022-11-11T13:53:46;16.52;;;7.63;;
71767;SDS011;59604;52.138;5.446;2022-11-11T13:56:24;17.33;;;8.10;;
71767;SDS011;59604;52.138;5.446;2022-11-11T13:58:51;16.48;;;7.30;;
71767;SDS011;59604;52.138;5.446;2022-11-11T14:01:20;19.73;;;7.57;;
71767;SDS011;59604;52.138;5.446;2022-11-11T14:13:53;14.35;;;6.40;;
71767;SDS011;59604;52.138;5.446;2022-11-11T14:21:54;15.85;;;6.97;;
71767;SDS011;59604;52.138;5.446;2022-11-11T14:27:24;15.57;;;7.07;;
71767;SDS011;59604;52.138;5.446;2022-11-11T14:29:58;15.88;;;6.85;;
71767;SDS011;59604;52.138;5.446;2022-11-11T14:38:29;15.02;;;6.05;;
71767;SDS011;59604;52.138;5.446;2022-11-11T14:41:37;13.68;;;6.38;;
71767;SDS011;59604;52.138;5.446;2022-11-11T14:57:31;15.95;;;6.47;;
71767;SDS011;59604;52.138;5.446;2022-11-11T15:00:04;13.10;;;5.90;;
71767;SDS011;59604;52.138;5.446;2022-11-11T15:02:37;13.98;;;6.07;;
71767;SDS011;59604;52.138;5.446;2022-11-11T15:05:12;13.77;;;6.15;;
71767;SDS011;59604;52.138;5.446;2022-11-11T15:16:13;16.00;;;6.78;;
71767;SDS011;59604;52.138;5.446;2022-11-11T15:19:14;14.98;;;6.22;;
71767;SDS011;59604;52.138;5.446;2022-11-11T15:24:45;14.27;;;5.30;;
71767;SDS011;59604;52.138;5.446;2022-11-11T15:32:43;13.35;;;5.80;;
71767;SDS011;59604;52.138;5.446;2022-11-11T15:38:00;12.20;;;5.43;;
71767;SDS011;59604;52.138;5.446;2022-11-11T15:40:41;13.63;;;5.68;;
71767;SDS011;59604;52.138;5.446;2022-11-11T15:43:30;13.55;;;5.40;;
71767;SDS011;59604;52.138;5.446;2022-11-11T15:46:01;11.00;;;5.30;;
71767;SDS011;59604;52.138;5.446;2022-11-11T15:48:31;14.82;;;5.72;;
71767;SDS011;59604;52.138;5.446;2022-11-11T15:53:47;14.38;;;5.45;;
71767;SDS011;59604;52.138;5.446;2022-11-11T15:56:47;12.88;;;5.85;;
71767;SDS011;59604;52.138;5.446;2022-11-11T15:59:16;12.98;;;5.72;;
71767;SDS011;59604;52.138;5.446;2022-11-11T16:01:48;14.60;;;5.80;;
71767;SDS011;59604;52.138;5.446;2022-11-11T16:04:17;13.52;;;5.85;;
71767;SDS011;59604;52.138;5.446;2022-11-11T16:07:15;14.77;;;6.57;;
71767;SDS011;59604;52.138;5.446;2022-11-11T16:09:42;13.15;;;6.45;;
71767;SDS011;59604;52.138;5.446;2022-11-11T16:12:10;16.77;;;6.68;;
71767;SDS011;59604;52.138;5.446;2022-11-11T16:14:39;21.63;;;9.25;;
71767;SDS011;59604;52.138;5.446;2022-11-11T16:17:11;16.98;;;7.40;;
71767;SDS011;59604;52.138;5.446;2022-11-11T16:19:40;15.48;;;6.18;;
71767;SDS011;59604;52.138;5.446;2022-11-11T16:22:18;14.32;;;5.57;;
71767;SDS011;59604;52.138;5.446;2022-11-11T16:24:49;12.55;;;5.68;;
71767;SDS011;59604;52.138;5.446;2022-11-11T16:27:17;13.65;;;6.30;;
71767;SDS011;59604;52.138;5.446;2022-11-11T16:29:47;16.80;;;8.18;;
71767;SDS011;59604;52.138;5.446;2022-11-11T16:34:52;31.70;;;14.82;;
71767;SDS011;59604;52.138;5.446;2022-11-11T16:37:20;18.65;;;8.25;;
71767;SDS011;59604;52.138;5.446;2022-11-11T16:39:47;23.73;;;10.60;;
71767;SDS011;59604;52.138;5.446;2022-11-11T16:52:25;20.38;;;10.40;;
71767;SDS011;59604;52.138;5.446;2022-11-11T16:54:54;15.43;;;6.00;;
71767;SDS011;59604;52.138;5.446;2022-11-11T16:57:28;13.20;;;5.38;;
71767;SDS011;59604;52.138;5.446;2022-11-11T16:59:59;15.57;;;7.75;;
71767;SDS011;59604;52.138;5.446;2022-11-11T17:02:28;12.63;;;5.82;;
71767;SDS011;59604;52.138;5.446;2022-11-11T17:04:56;15.85;;;6.57;;
71767;SDS011;59604;52.138;5.446;2022-11-11T17:12:43;12.40;;;5.45;;
71767;SDS011;59604;52.138;5.446;2022-11-11T17:15:11;13.35;;;6.35;;
71767;SDS011;59604;52.138;5.446;2022-11-11T17:17:40;15.60;;;6.28;;
71767;SDS011;59604;52.138;5.446;2022-11-11T17:20:16;15.00;;;6.80;;
71767;SDS011;59604;52.138;5.446;2022-11-11T17:22:47;13.52;;;5.60;;
71767;SDS011;59604;52.138;5.446;2022-11-11T17:25:15;15.25;;;5.80;;
71767;SDS011;59604;52.138;5.446;2022-11-11T17:27:41;16.70;;;7.35;;
71767;SDS011;59604;52.138;5.446;2022-11-11T17:30:11;14.60;;;6.90;;
71767;SDS011;59604;52.138;5.446;2022-11-11T17:32:39;13.32;;;5.60;;
71767;SDS011;59604;52.138;5.446;2022-11-11T17:35:05;13.32;;;5.13;;
71767;SDS011;59604;52.138;5.446;2022-11-11T17:37:37;15.43;;;6.03;;
71767;SDS011;59604;52.138;5.446;2022-11-11T17:40:05;13.27;;;7.18;;
71767;SDS011;59604;52.138;5.446;2022-11-11T17:44:59;14.90;;;5.38;;
71767;SDS011;59604;52.138;5.446;2022-11-11T17:47:26;11.77;;;5.07;;
71767;SDS011;59604;52.138;5.446;2022-11-11T17:49:53;11.70;;;4.85;;
71767;SDS011;59604;52.138;5.446;2022-11-11T17:52:22;12.18;;;5.60;;
71767;SDS011;59604;52.138;5.446;2022-11-11T17:54:49;12.05;;;5.03;;
71767;SDS011;59604;52.138;5.446;2022-11-11T17:57:16;11.02;;;4.75;;